Time;durP1;ratioP1;P1;durP2;ratioP2;P2;SDS_P1;SDS_P2;PMS_P1;PMS_P2;Temp;Humidity;BMP_temperature;BMP_pressure;BME280_temperature;BME280_humidity;BME280_pressure;Samples;Min_cycle;Max_cycle;Signal;HPM_P1;HPM_P2
2021/05/17 00:03:04;;;;;;;0.50;0.50;;;14.70;34.80;;;;;;10411047;28;20312;-71
2021/05/17 00:08:07;;;;;;;0.50;0.50;;;14.70;34.70;;;;;;10402385;28;20312;-71
2021/05/17 00:13:12;;;;;;;0.50;0.50;;;14.70;34.80;;;;;;10398268;28;20257;-71
2021/05/17 00:18:15;;;;;;;0.60;0.60;;;14.70;35.10;;;;;;10395649;28;20229;-71
2021/05/17 00:23:18;;;;;;;0.60;0.60;;;14.80;34.80;;;;;;10382962;28;20320;-70
2021/05/17 00:28:22;;;;;;;1.03;0.70;;;14.70;34.80;;;;;;10407190;28;20253;-71
2021/05/17 00:33:25;;;;;;;0.70;0.70;;;14.80;35.00;;;;;;10409747;28;20313;-71
2021/05/17 00:38:29;;;;;;;0.87;0.60;;;14.70;34.70;;;;;;10386494;28;20253;-70
2021/05/17 00:43:36;;;;;;;0.60;0.60;;;14.70;34.90;;;;;;10395515;28;20253;-71
2021/05/17 00:48:40;;;;;;;0.50;0.50;;;14.70;35.30;;;;;;10411924;28;20309;-70
2021/05/17 00:53:43;;;;;;;1.07;0.70;;;14.60;35.20;;;;;;10400581;28;20276;-71
2021/05/17 00:58:47;;;;;;;0.90;0.60;;;14.60;35.30;;;;;;10403349;28;20778;-71
2021/05/17 01:03:50;;;;;;;0.60;0.60;;;14.50;35.40;;;;;;10385069;28;20235;-71
2021/05/17 01:08:59;;;;;;;1.00;0.70;;;14.50;35.30;;;;;;10390424;28;20304;-71
2021/05/17 01:14:05;;;;;;;0.50;0.50;;;14.50;36.00;;;;;;10400884;28;20253;-70
2021/05/17 01:19:11;;;;;;;0.63;0.60;;;14.40;35.60;;;;;;10410943;28;20312;-71
2021/05/17 01:24:16;;;;;;;0.70;0.70;;;14.40;35.60;;;;;;10374358;28;20313;-71
2021/05/17 01:29:19;;;;;;;0.60;0.50;;;14.50;35.40;;;;;;10369247;28;20322;-71
2021/05/17 01:34:23;;;;;;;0.40;0.40;;;14.50;35.10;;;;;;10368963;28;20754;-70
2021/05/17 01:39:27;;;;;;;0.50;0.50;;;14.40;35.10;;;;;;10406585;28;20221;-71
2021/05/17 01:44:31;;;;;;;0.60;0.60;;;14.40;35.30;;;;;;10395819;28;20233;-71
2021/05/17 01:49:40;;;;;;;1.10;0.50;;;14.30;35.30;;;;;;10382143;28;20725;-71
2021/05/17 01:54:44;;;;;;;0.60;0.60;;;14.30;35.60;;;;;;10390934;28;20795;-71
2021/05/17 01:59:47;;;;;;;0.60;0.60;;;14.30;35.70;;;;;;10402927;28;20304;-71
2021/05/17 02:04:50;;;;;;;0.60;0.60;;;14.20;35.50;;;;;;10381546;28;20252;-71
2021/05/17 02:09:54;;;;;;;0.60;0.50;;;14.20;35.50;;;;;;10402643;28;20234;-70
2021/05/17 02:14:57;;;;;;;1.03;0.60;;;14.20;35.60;;;;;;10404718;28;20325;-71
2021/05/17 02:20:00;;;;;;;1.30;0.60;;;14.30;35.50;;;;;;10392032;28;20229;-71
2021/05/17 02:25:05;;;;;;;0.53;0.53;;;14.30;35.70;;;;;;10407809;28;20261;-71
2021/05/17 02:30:11;;;;;;;0.60;0.60;;;14.30;35.70;;;;;;10408030;28;20253;-71
2021/05/17 02:35:14;;;;;;;2.07;0.50;;;14.30;35.50;;;;;;10404409;28;20238;-70
2021/05/17 02:40:19;;;;;;;0.50;0.50;;;14.30;35.40;;;;;;10368833;28;20258;-70
2021/05/17 02:45:23;;;;;;;0.40;0.40;;;14.30;35.60;;;;;;10383617;28;20257;-71
2021/05/17 02:50:34;;;;;;;0.97;0.60;;;14.30;35.50;;;;;;10371122;28;20337;-71
2021/05/17 02:55:39;;;;;;;0.93;0.50;;;14.30;35.80;;;;;;10393559;28;20249;-71
2021/05/17 03:00:45;;;;;;;0.67;0.50;;;14.20;35.50;;;;;;10406906;28;20312;-71
2021/05/17 03:05:56;;;;;;;2.30;0.50;;;14.20;35.70;;;;;;10393266;28;20221;-71
2021/05/17 03:11:00;;;;;;;0.73;0.50;;;14.10;35.90;;;;;;10407026;28;20275;-71
2021/05/17 03:16:04;;;;;;;0.53;0.50;;;14.10;35.70;;;;;;10406987;28;20320;-71
2021/05/17 03:21:06;;;;;;;2.67;0.60;;;14.00;35.60;;;;;;10378584;28;20641;-71
2021/05/17 03:26:10;;;;;;;0.50;0.50;;;14.10;35.80;;;;;;10370127;28;20600;-71
2021/05/17 03:31:13;;;;;;;0.40;0.40;;;14.00;35.90;;;;;;10399192;28;20233;-71
2021/05/17 03:36:16;;;;;;;1.07;0.70;;;14.00;35.60;;;;;;10389985;28;20229;-71
2021/05/17 03:41:19;;;;;;;1.27;0.60;;;14.00;35.70;;;;;;10397780;28;20229;-70
2021/05/17 03:46:22;;;;;;;0.67;0.60;;;14.10;35.90;;;;;;10407271;28;20245;-71
2021/05/17 03:51:25;;;;;;;0.60;0.60;;;14.10;35.80;;;;;;10413752;28;20316;-70
2021/05/17 03:56:28;;;;;;;0.57;0.40;;;14.10;35.90;;;;;;10413648;28;20312;-71
2021/05/17 04:01:31;;;;;;;0.50;0.50;;;14.00;35.70;;;;;;10395349;28;20762;-71
2021/05/17 04:06:41;;;;;;;0.60;0.60;;;14.00;35.80;;;;;;10404338;28;20246;-71
2021/05/17 04:17:05;;;;;;;1.10;0.50;;;14.10;36.00;;;;;;10408129;28;20313;-71
2021/05/17 04:22:08;;;;;;;0.60;0.50;;;14.10;35.80;;;;;;10389617;28;20258;-71
2021/05/17 04:27:12;;;;;;;0.47;0.47;;;14.10;35.60;;;;;;10371681;28;20222;-71
2021/05/17 04:32:14;;;;;;;0.83;0.60;;;14.10;35.70;;;;;;10387951;28;20265;-71
2021/05/17 04:37:17;;;;;;;0.70;0.70;;;14.10;35.60;;;;;;10411015;28;20229;-71
2021/05/17 04:42:21;;;;;;;0.50;0.50;;;14.10;35.60;;;;;;10397851;28;20257;-71
2021/05/17 04:47:23;;;;;;;0.60;0.60;;;14.10;35.70;;;;;;10404615;28;20279;-71
2021/05/17 04:52:26;;;;;;;0.80;0.80;;;14.10;35.60;;;;;;10398558;28;20320;-71
2021/05/17 04:57:30;;;;;;;0.60;0.60;;;14.10;35.70;;;;;;10397796;28;20363;-71
2021/05/17 05:02:38;;;;;;;1.17;0.60;;;14.10;35.70;;;;;;10392189;28;20222;-71
2021/05/17 05:07:41;;;;;;;0.50;0.50;;;14.10;35.60;;;;;;10372824;28;20221;-71
2021/05/17 05:12:45;;;;;;;0.70;0.50;;;14.20;35.90;;;;;;10379187;28;20254;-71
2021/05/17 05:17:47;;;;;;;0.67;0.67;;;14.20;36.10;;;;;;10369345;28;20305;-71
2021/05/17 05:22:50;;;;;;;1.40;1.13;;;14.20;36.10;;;;;;10369020;28;20293;-71
2021/05/17 05:27:55;;;;;;;2.50;2.10;;;14.10;36.00;;;;;;10406815;28;20299;-72
2021/05/17 05:33:08;;;;;;;2.03;1.40;;;14.10;36.30;;;;;;10409448;28;20316;-71
2021/05/17 05:38:11;;;;;;;0.97;0.80;;;14.10;36.30;;;;;;10410395;28;20225;-71
2021/05/17 05:43:15;;;;;;;1.47;1.20;;;14.20;36.30;;;;;;10408924;28;20459;-70
2021/05/17 05:48:17;;;;;;;1.73;1.00;;;14.20;36.30;;;;;;10374304;28;20247;-71
2021/05/17 05:53:20;;;;;;;0.80;0.70;;;14.20;36.10;;;;;;10376696;28;20233;-70
2021/05/17 05:58:24;;;;;;;1.20;0.80;;;14.20;36.30;;;;;;10387041;28;20246;-71
2021/05/17 06:03:26;;;;;;;1.00;0.80;;;14.20;36.40;;;;;;10376848;28;20309;-70
2021/05/17 06:08:30;;;;;;;1.60;0.80;;;14.20;36.10;;;;;;10408681;28;20233;-71
2021/05/17 06:13:35;;;;;;;1.50;1.10;;;14.20;36.30;;;;;;10408668;28;20256;-71
2021/05/17 06:18:38;;;;;;;1.43;0.80;;;14.30;36.80;;;;;;10408595;28;20244;-71
2021/05/17 06:23:42;;;;;;;1.67;0.90;;;14.30;36.80;;;;;;10408218;28;20301;-70
2021/05/17 06:28:47;;;;;;;1.20;0.90;;;14.40;36.80;;;;;;10408149;28;20313;-71
2021/05/17 06:33:50;;;;;;;1.87;0.90;;;14.50;36.90;;;;;;10407806;28;20265;-71
2021/05/17 06:38:53;;;;;;;2.47;1.07;;;14.50;37.20;;;;;;10407746;28;20264;-71
2021/05/17 06:43:57;;;;;;;1.73;0.90;;;14.50;37.50;;;;;;10407402;28;20702;-71
2021/05/17 06:49:01;;;;;;;2.97;2.00;;;14.60;37.40;;;;;;10407407;28;20778;-71
2021/05/17 06:54:05;;;;;;;2.90;1.80;;;14.60;37.40;;;;;;10400279;28;20230;-71
2021/05/17 06:59:13;;;;;;;4.40;1.90;;;14.60;37.50;;;;;;10371998;28;20630;-70
2021/05/17 07:04:17;;;;;;;5.30;1.70;;;14.70;37.30;;;;;;10383433;28;20237;-70
2021/05/17 07:14:42;;;;;;;5.30;2.60;;;14.80;37.00;;;;;;10393271;28;20295;-70
2021/05/17 07:19:45;;;;;;;5.50;3.83;;;14.80;37.00;;;;;;10404476;28;20256;-70
2021/05/17 07:24:48;;;;;;;4.33;3.00;;;14.90;37.00;;;;;;10390205;28;20316;-70
2021/05/17 07:29:51;;;;;;;2.90;1.80;;;14.90;37.20;;;;;;10377925;28;20270;-70
2021/05/17 07:34:55;;;;;;;2.67;1.40;;;15.00;37.00;;;;;;10382452;28;20233;-70
2021/05/17 07:39:58;;;;;;;2.03;1.07;;;15.10;36.80;;;;;;10385671;28;20279;-70
2021/05/17 07:45:01;;;;;;;2.37;0.90;;;15.20;37.00;;;;;;10390786;28;20934;-70
2021/05/17 07:50:05;;;;;;;0.70;0.70;;;15.40;36.90;;;;;;10391464;28;20304;-76
2021/05/17 07:55:09;;;;;;;1.33;0.80;;;15.50;36.50;;;;;;10385169;28;20677;-69
2021/05/17 08:00:15;;;;;;;1.23;0.90;;;15.60;36.70;;;;;;10394417;28;20264;-70
2021/05/17 08:05:17;;;;;;;1.27;0.73;;;15.80;36.00;;;;;;10385097;28;20230;-70
2021/05/17 08:10:20;;;;;;;1.97;1.30;;;15.90;36.00;;;;;;10402451;28;20256;-75
2021/05/17 08:15:24;;;;;;;1.37;0.97;;;15.90;36.20;;;;;;10410824;28;20238;-76
2021/05/17 08:20:29;;;;;;;2.40;0.83;;;16.00;35.90;;;;;;10406860;28;20218;-75
2021/05/17 08:25:32;;;;;;;1.73;0.90;;;16.10;35.60;;;;;;10407888;28;20287;-75
2021/05/17 08:30:41;;;;;;;3.67;1.10;;;16.20;35.80;;;;;;10400684;28;20257;-75
2021/05/17 08:35:44;;;;;;;1.57;0.90;;;16.20;35.70;;;;;;10389286;28;20238;-76
2021/05/17 08:40:47;;;;;;;1.57;0.90;;;16.40;35.90;;;;;;10391873;28;20586;-76
2021/05/17 08:45:51;;;;;;;1.07;0.80;;;16.50;35.80;;;;;;10380961;28;20237;-76
2021/05/17 08:50:56;;;;;;;1.00;0.90;;;16.70;35.00;;;;;;10403766;28;20284;-75
2021/05/17 08:55:58;;;;;;;1.50;0.80;;;16.70;35.10;;;;;;10399475;28;20312;-75
2021/05/17 09:01:03;;;;;;;1.03;0.80;;;16.80;35.10;;;;;;10402510;28;20261;-74
2021/05/17 09:06:12;;;;;;;1.60;0.90;;;16.90;34.90;;;;;;10392903;28;20229;-74
2021/05/17 09:11:29;;;;;;;1.33;0.80;;;16.90;34.40;;;;;;10410894;28;20320;-74
2021/05/17 09:16:55;;;;;;;1.37;0.80;;;16.90;34.60;;;;;;10391920;28;20657;-75
2021/05/17 09:22:11;;;;;;;1.53;1.00;;;16.90;34.10;;;;;;10369419;28;20227;-74
2021/05/17 09:27:16;;;;;;;0.97;0.80;;;17.00;34.20;;;;;;10367942;28;20314;-74
2021/05/17 09:32:22;;;;;;;1.70;0.70;;;17.10;34.00;;;;;;10368954;28;20326;-75
2021/05/17 09:37:25;;;;;;;1.97;0.90;;;17.20;34.00;;;;;;10403017;28;20233;-75
2021/05/17 09:42:30;;;;;;;0.70;0.60;;;17.20;34.10;;;;;;10409580;28;20265;-75
2021/05/17 09:47:33;;;;;;;1.97;0.80;;;17.40;34.20;;;;;;10409406;28;20803;-75
2021/05/17 09:52:37;;;;;;;0.90;0.90;;;17.50;34.20;;;;;;10409350;28;20268;-75
2021/05/17 09:57:41;;;;;;;2.27;0.93;;;17.50;33.50;;;;;;10409476;28;20244;-75
2021/05/17 10:02:46;;;;;;;1.60;0.70;;;17.50;33.80;;;;;;10408844;28;20230;-76
2021/05/17 10:07:53;;;;;;;1.70;0.60;;;17.40;33.60;;;;;;10409116;28;20701;-76
2021/05/17 10:13:14;;;;;;;0.93;0.87;;;17.10;34.00;;;;;;10397191;28;20234;-74
2021/05/17 10:18:17;;;;;;;2.80;1.30;;;16.80;34.20;;;;;;10379001;28;20233;-71
2021/05/17 10:23:21;;;;;;;1.00;0.80;;;16.50;35.00;;;;;;10384115;28;20244;-73
2021/05/17 10:28:25;;;;;;;1.00;0.80;;;16.30;34.90;;;;;;10383100;28;20236;-72
2021/05/17 10:33:29;;;;;;;0.70;0.70;;;16.10;35.40;;;;;;10377845;28;20324;-72
2021/05/17 10:38:38;;;;;;;0.60;0.60;;;15.90;35.80;;;;;;10377189;28;20231;-72
2021/05/17 10:44:01;;;;;;;0.93;0.80;;;15.80;36.20;;;;;;10374838;28;20230;-71
2021/05/17 10:49:32;;;;;;;0.70;0.70;;;15.70;38.00;;;;;;10376998;28;20234;-71
2021/05/17 10:54:37;;;;;;;0.90;0.70;;;15.90;39.10;;;;;;10374863;28;20226;-72
2021/05/17 11:05:10;;;;;;;1.43;1.20;;;16.30;37.40;;;;;;10359885;28;20312;-72
2021/05/17 11:10:16;;;;;;;0.73;0.67;;;16.30;37.10;;;;;;10353645;28;20252;-72
2021/05/17 11:15:21;;;;;;;0.50;0.50;;;16.20;36.20;;;;;;10353843;28;20254;-71
2021/05/17 11:20:45;;;;;;;0.40;0.37;;;16.00;36.20;;;;;;10338828;28;20802;-71
2021/05/17 11:25:52;;;;;;;1.17;0.70;;;15.80;36.40;;;;;;10372590;28;20225;-71
2021/05/17 11:31:03;;;;;;;0.90;0.60;;;15.70;36.60;;;;;;10373064;28;20743;-71
2021/05/17 11:36:16;;;;;;;1.20;1.10;;;15.60;37.10;;;;;;10382717;28;20300;-71
2021/05/17 11:41:20;;;;;;;0.70;0.70;;;15.50;36.80;;;;;;10377939;28;20229;-71
2021/05/17 11:46:23;;;;;;;0.80;0.80;;;15.50;36.50;;;;;;10375926;28;20230;-71
2021/05/17 11:51:28;;;;;;;0.70;0.70;;;15.50;36.70;;;;;;10381047;28;21119;-71
2021/05/17 11:56:39;;;;;;;0.60;0.60;;;15.60;37.10;;;;;;10388354;28;20313;-71
2021/05/17 12:01:44;;;;;;;0.83;0.50;;;15.70;37.60;;;;;;10371238;28;20869;-71
2021/05/17 12:06:50;;;;;;;1.03;0.57;;;15.80;38.40;;;;;;10372487;28;20313;-71
2021/05/17 12:11:54;;;;;;;0.70;0.70;;;16.00;38.80;;;;;;10376564;28;20954;-71
2021/05/17 12:17:16;;;;;;;0.60;0.60;;;16.20;38.80;;;;;;10382787;28;20240;-70
2021/05/17 12:22:23;;;;;;;0.50;0.50;;;16.60;37.50;;;;;;10375531;28;20236;-70
2021/05/17 12:27:27;;;;;;;0.40;0.40;;;17.00;38.00;;;;;;10378083;28;20256;-70
2021/05/17 12:32:42;;;;;;;0.43;0.43;;;17.20;37.20;;;;;;10376824;28;20566;-70
2021/05/17 12:37:48;;;;;;;1.70;0.50;;;17.50;34.30;;;;;;10374803;28;20252;-71
2021/05/17 12:43:09;;;;;;;0.63;0.63;;;17.80;35.00;;;;;;10376542;28;20229;-71
2021/05/17 12:48:20;;;;;;;0.50;0.50;;;18.00;34.70;;;;;;10370275;28;20926;-71
2021/05/17 12:53:26;;;;;;;0.77;0.50;;;18.10;34.40;;;;;;10374130;28;20256;-71
2021/05/17 12:58:31;;;;;;;1.10;0.40;;;18.10;33.70;;;;;;10380434;28;20732;-71
2021/05/17 13:03:36;;;;;;;0.50;0.47;;;18.10;33.70;;;;;;10370898;28;20234;-71
2021/05/17 13:08:54;;;;;;;0.50;0.50;;;18.00;33.80;;;;;;10379929;28;20295;-71
2021/05/17 13:14:04;;;;;;;0.50;0.50;;;18.00;33.30;;;;;;10376883;28;20266;-71
2021/05/17 13:19:29;;;;;;;0.50;0.47;;;18.10;33.30;;;;;;10378721;28;20262;-71
2021/05/17 13:25:12;;;;;;;0.50;0.50;;;18.10;33.70;;;;;;10380237;28;20308;-72
2021/05/17 13:30:17;;;;;;;0.50;0.50;;;18.20;34.60;;;;;;10379621;28;20637;-72
2021/05/17 13:35:20;;;;;;;0.50;0.50;;;18.30;34.30;;;;;;10391311;28;20320;-72
2021/05/17 13:40:25;;;;;;;0.57;0.57;;;18.20;34.00;;;;;;10356877;28;20230;-72
2021/05/17 13:45:28;;;;;;;0.50;0.50;;;17.90;34.60;;;;;;10362658;28;20590;-71
2021/05/17 13:50:31;;;;;;;0.60;0.60;;;17.80;34.40;;;;;;10352057;28;20235;-72
2021/05/17 13:55:35;;;;;;;0.50;0.50;;;17.70;34.50;;;;;;10348232;28;20262;-72
2021/05/17 14:00:38;;;;;;;0.60;0.50;;;17.60;33.50;;;;;;10359775;28;20233;-71
2021/05/17 14:05:41;;;;;;;0.47;0.40;;;17.60;33.50;;;;;;10369929;28;20241;-71
2021/05/17 14:10:44;;;;;;;0.50;0.50;;;17.60;33.60;;;;;;10375209;28;20214;-72
2021/05/17 14:15:48;;;;;;;0.40;0.40;;;17.60;33.90;;;;;;10384595;28;20240;-71
2021/05/17 14:20:51;;;;;;;0.50;0.50;;;17.70;34.90;;;;;;10375876;28;20320;-71
2021/05/17 14:25:54;;;;;;;1.27;0.50;;;17.80;34.40;;;;;;10379658;28;20228;-71
2021/05/17 14:30:57;;;;;;;0.40;0.40;;;18.00;33.50;;;;;;10386994;28;20229;-71
2021/05/17 14:36:00;;;;;;;0.50;0.50;;;18.00;33.40;;;;;;10386660;28;20237;-71
2021/05/17 14:41:04;;;;;;;0.50;0.50;;;18.00;33.50;;;;;;10374867;28;20313;-71
2021/05/17 14:46:07;;;;;;;0.70;0.70;;;18.00;33.70;;;;;;10387077;28;20291;-72
2021/05/17 14:51:10;;;;;;;2.27;0.67;;;18.00;33.90;;;;;;10392744;28;20765;-72
2021/05/17 14:56:13;;;;;;;1.30;0.67;;;17.70;33.50;;;;;;10390291;28;20225;-73
2021/05/17 15:01:16;;;;;;;0.60;0.50;;;17.30;34.10;;;;;;10388391;28;20312;-72
2021/05/17 15:06:19;;;;;;;0.73;0.60;;;17.00;33.90;;;;;;10393161;28;20778;-73
2021/05/17 15:11:23;;;;;;;0.57;0.57;;;16.80;33.70;;;;;;10385858;28;20226;-73
2021/05/17 15:16:27;;;;;;;0.60;0.60;;;16.60;34.60;;;;;;10386809;28;20304;-73
2021/05/17 15:21:30;;;;;;;0.60;0.60;;;16.50;34.70;;;;;;10383921;28;20316;-72
2021/05/17 15:26:34;;;;;;;0.50;0.50;;;16.50;35.20;;;;;;10384408;28;20230;-72
2021/05/17 15:31:37;;;;;;;0.50;0.50;;;16.50;35.30;;;;;;10377683;28;20234;-72
2021/05/17 15:36:40;;;;;;;0.50;0.50;;;16.50;34.90;;;;;;10366274;28;20318;-71
2021/05/17 15:41:44;;;;;;;0.80;0.80;;;16.50;35.30;;;;;;10380027;28;20225;-72
2021/05/17 15:46:48;;;;;;;1.47;0.80;;;16.50;35.00;;;;;;10387893;28;20316;-72
2021/05/17 15:51:50;;;;;;;1.63;1.10;;;16.40;34.90;;;;;;10395970;28;20325;-73
2021/05/17 15:56:54;;;;;;;0.80;0.63;;;16.40;35.90;;;;;;10391469;28;20237;-72
2021/05/17 16:01:57;;;;;;;0.50;0.50;;;16.30;35.90;;;;;;10390768;28;20262;-72
2021/05/17 16:07:00;;;;;;;0.73;0.73;;;16.30;35.70;;;;;;10388458;28;20260;-72
2021/05/17 16:12:06;;;;;;;0.80;0.80;;;16.30;36.00;;;;;;10383921;28;20228;-73
2021/05/17 16:17:28;;;;;;;1.00;0.90;;;16.20;36.10;;;;;;10386720;28;20309;-73
2021/05/17 16:22:30;;;;;;;1.00;0.90;;;16.10;35.90;;;;;;10379982;28;21018;-73
2021/05/17 16:27:34;;;;;;;1.27;1.17;;;15.90;36.20;;;;;;10389632;28;20230;-72
2021/05/17 16:32:37;;;;;;;1.80;1.00;;;15.90;36.80;;;;;;10385852;28;20320;-72
2021/05/17 16:37:41;;;;;;;2.20;2.07;;;15.90;36.70;;;;;;10390163;28;20324;-72
2021/05/17 16:42:44;;;;;;;0.73;0.73;;;15.90;36.90;;;;;;10388482;28;20312;-72
2021/05/17 16:47:47;;;;;;;0.60;0.57;;;15.80;37.20;;;;;;10391012;28;20221;-73
2021/05/17 16:52:50;;;;;;;0.67;0.60;;;15.80;36.40;;;;;;10390291;28;20241;-73
2021/05/17 16:57:54;;;;;;;0.53;0.53;;;15.70;36.10;;;;;;10391679;28;20264;-74
2021/05/17 17:02:57;;;;;;;0.40;0.40;;;15.50;36.20;;;;;;10387299;28;20290;-73
2021/05/17 17:08:03;;;;;;;0.40;0.40;;;15.40;36.00;;;;;;10384959;28;20238;-73
2021/05/17 17:13:06;;;;;;;0.57;0.57;;;15.30;36.20;;;;;;10386352;28;20324;-73
2021/05/17 17:18:09;;;;;;;1.13;0.60;;;15.20;36.50;;;;;;10381295;28;20224;-73
2021/05/17 17:23:11;;;;;;;1.07;0.70;;;15.20;36.70;;;;;;10388163;28;20237;-72
2021/05/17 17:28:15;;;;;;;0.63;0.63;;;15.20;36.70;;;;;;10381018;28;20223;-72
2021/05/17 17:33:18;;;;;;;0.50;0.50;;;15.20;37.20;;;;;;10389975;28;20238;-72
2021/05/17 17:38:21;;;;;;;1.17;0.70;;;15.20;37.00;;;;;;10387934;28;20313;-72
2021/05/17 17:43:27;;;;;;;1.50;1.33;;;15.30;36.90;;;;;;10379165;28;20254;-72
2021/05/17 17:48:31;;;;;;;0.90;0.90;;;15.30;37.10;;;;;;10387810;28;20249;-72
2021/05/17 17:53:33;;;;;;;0.97;0.60;;;15.40;36.80;;;;;;10379454;28;20344;-72
2021/05/17 17:58:37;;;;;;;0.77;0.77;;;15.40;36.80;;;;;;10379156;28;20304;-72
2021/05/17 18:03:42;;;;;;;0.97;0.90;;;15.30;36.90;;;;;;10389259;28;20275;-72
2021/05/17 18:08:45;;;;;;;0.80;0.80;;;15.30;36.80;;;;;;10377933;28;20226;-72
2021/05/17 18:13:50;;;;;;;1.60;1.50;;;15.20;36.80;;;;;;10385491;28;20671;-72
2021/05/17 18:18:53;;;;;;;1.00;1.00;;;15.10;37.30;;;;;;10382959;28;20769;-72
2021/05/17 18:23:56;;;;;;;0.80;0.80;;;15.00;37.10;;;;;;10381086;28;20316;-72
2021/05/17 18:29:00;;;;;;;0.80;0.80;;;14.90;37.20;;;;;;10387079;28;20321;-72
2021/05/17 18:34:04;;;;;;;0.80;0.80;;;14.80;37.50;;;;;;10355764;28;20305;-72
2021/05/17 18:39:09;;;;;;;0.93;0.87;;;14.80;37.50;;;;;;10337997;28;20312;-72
2021/05/17 18:49:48;;;;;;;1.03;0.90;;;14.70;38.00;;;;;;10221710;28;20240;-73
2021/05/17 18:54:50;;;;;;;1.30;0.83;;;14.60;37.90;;;;;;10339849;28;20283;-72
2021/05/17 18:59:54;;;;;;;3.57;3.27;;;14.50;38.00;;;;;;10382487;28;20257;-72
2021/05/17 19:04:58;;;;;;;6.17;5.40;;;14.50;38.50;;;;;;10378473;28;20222;-72
2021/05/17 19:10:02;;;;;;;2.07;1.90;;;14.50;38.40;;;;;;10385360;28;20222;-73
2021/05/17 19:15:08;;;;;;;1.50;1.40;;;14.50;38.60;;;;;;10361023;28;20217;-73
2021/05/17 19:20:11;;;;;;;1.63;1.33;;;14.50;39.50;;;;;;10358441;28;20341;-72
2021/05/17 19:25:14;;;;;;;1.80;1.70;;;14.50;39.00;;;;;;10361580;28;20301;-72
2021/05/17 19:30:23;;;;;;;1.63;1.53;;;14.50;39.20;;;;;;10366633;28;20708;-73
2021/05/17 19:35:26;;;;;;;1.90;1.20;;;14.60;40.20;;;;;;10362708;28;20226;-72
2021/05/17 19:40:28;;;;;;;1.20;1.20;;;14.60;39.00;;;;;;10348799;28;20227;-72
2021/05/17 19:45:33;;;;;;;1.90;1.73;;;14.60;39.10;;;;;;10377265;28;20317;-72
2021/05/17 19:50:35;;;;;;;1.70;1.60;;;14.70;39.60;;;;;;10372237;28;21113;-72
2021/05/17 19:55:39;;;;;;;1.60;1.50;;;14.70;39.30;;;;;;10372593;28;20317;-72
2021/05/17 20:00:43;;;;;;;1.40;1.30;;;14.70;39.10;;;;;;10370329;28;20312;-72
2021/05/17 20:05:46;;;;;;;1.20;1.10;;;14.60;39.40;;;;;;10371561;28;20234;-72
2021/05/17 20:10:49;;;;;;;0.80;0.80;;;14.60;39.20;;;;;;10374998;28;20222;-72
2021/05/17 20:15:54;;;;;;;1.03;0.93;;;14.50;39.30;;;;;;10384090;28;20321;-72
2021/05/17 20:20:57;;;;;;;0.73;0.73;;;14.40;39.80;;;;;;10386359;28;20328;-72
2021/05/17 20:26:00;;;;;;;1.27;0.90;;;14.40;39.50;;;;;;10395646;28;20228;-72
2021/05/17 20:31:09;;;;;;;1.10;1.00;;;14.40;39.70;;;;;;10389905;28;20881;-72
2021/05/17 20:36:12;;;;;;;0.83;0.77;;;14.40;40.30;;;;;;10391546;28;20316;-72
2021/05/17 20:41:15;;;;;;;1.17;0.80;;;14.40;39.70;;;;;;10391800;28;20229;-72
2021/05/17 20:46:24;;;;;;;0.70;0.70;;;14.50;39.80;;;;;;10389092;28;20221;-72
2021/05/17 20:51:26;;;;;;;0.60;0.60;;;14.50;40.00;;;;;;10391133;28;20421;-72
2021/05/17 20:56:29;;;;;;;2.17;0.80;;;14.50;39.40;;;;;;10391343;28;20935;-72
2021/05/17 21:01:34;;;;;;;0.90;0.70;;;14.50;39.40;;;;;;10391233;28;20610;-72
2021/05/17 21:06:37;;;;;;;1.13;0.70;;;14.50;39.60;;;;;;10384485;28;20785;-72
2021/05/17 21:11:40;;;;;;;0.70;0.70;;;14.60;39.50;;;;;;10384829;28;20229;-72
2021/05/17 21:16:44;;;;;;;1.03;0.70;;;14.60;39.40;;;;;;10373507;28;20333;-72
2021/05/17 21:21:47;;;;;;;0.53;0.53;;;14.50;39.20;;;;;;10384077;28;20226;-72
2021/05/17 21:26:49;;;;;;;0.70;0.70;;;14.50;39.20;;;;;;10383885;28;20236;-72
2021/05/17 21:31:53;;;;;;;0.60;0.60;;;14.50;39.10;;;;;;10379220;28;20325;-72
2021/05/17 21:36:59;;;;;;;0.93;0.60;;;14.50;39.10;;;;;;10380299;28;20253;-72
2021/05/17 21:42:01;;;;;;;1.50;0.70;;;14.50;39.00;;;;;;10379455;28;20813;-72
2021/05/17 21:47:05;;;;;;;0.80;0.60;;;14.50;39.10;;;;;;10383854;28;20340;-72
2021/05/17 21:52:07;;;;;;;1.27;0.70;;;14.50;39.20;;;;;;10378399;28;20313;-72
2021/05/17 21:57:10;;;;;;;1.07;0.80;;;14.50;39.00;;;;;;10381988;28;20317;-72
2021/05/17 22:02:14;;;;;;;0.60;0.60;;;14.40;39.00;;;;;;10383070;28;20256;-72
2021/05/17 22:12:36;;;;;;;1.80;0.60;;;14.40;38.90;;;;;;10380120;28;20229;-72
2021/05/17 22:17:39;;;;;;;1.00;0.63;;;14.30;38.80;;;;;;10381140;28;20310;-72
2021/05/17 22:22:42;;;;;;;1.53;0.67;;;14.30;38.80;;;;;;10377122;28;20256;-72
2021/05/17 22:27:45;;;;;;;0.83;0.60;;;14.20;38.60;;;;;;10378461;28;20308;-72
2021/05/17 22:32:48;;;;;;;1.60;0.60;;;14.20;38.60;;;;;;10378720;28;20316;-72
2021/05/17 22:37:51;;;;;;;1.30;0.73;;;14.10;38.70;;;;;;10373927;28;20266;-72
2021/05/17 22:42:53;;;;;;;0.77;0.60;;;14.00;38.70;;;;;;10377763;28;20325;-72
2021/05/17 22:47:57;;;;;;;2.17;0.70;;;14.00;38.80;;;;;;10376397;28;20326;-72
2021/05/17 22:53:00;;;;;;;1.10;0.60;;;13.90;38.80;;;;;;10375774;28;20249;-72
2021/05/17 22:58:03;;;;;;;1.30;0.70;;;13.90;38.80;;;;;;10377100;28;20225;-71
2021/05/17 23:03:09;;;;;;;0.60;0.60;;;13.80;38.80;;;;;;10379055;28;20226;-72
2021/05/17 23:08:12;;;;;;;0.63;0.57;;;13.80;39.10;;;;;;10384154;28;20252;-72
2021/05/17 23:13:15;;;;;;;0.80;0.60;;;13.80;38.90;;;;;;10381505;28;20266;-72
2021/05/17 23:18:19;;;;;;;0.50;0.50;;;13.70;38.90;;;;;;10379692;28;20240;-71
2021/05/17 23:23:27;;;;;;;0.40;0.40;;;13.70;39.10;;;;;;10376368;28;20288;-72
2021/05/17 23:28:31;;;;;;;0.40;0.40;;;13.80;39.20;;;;;;10381857;28;20234;-72
2021/05/17 23:33:35;;;;;;;0.50;0.50;;;13.80;39.00;;;;;;10372679;28;20232;-72
2021/05/17 23:38:38;;;;;;;0.50;0.50;;;13.80;39.10;;;;;;10379148;28;20252;-72
2021/05/17 23:43:41;;;;;;;1.37;0.60;;;13.70;39.10;;;;;;10380844;28;20229;-72
2021/05/17 23:48:45;;;;;;;0.50;0.50;;;13.80;39.20;;;;;;10383886;28;20301;-72
2021/05/17 23:53:48;;;;;;;0.40;0.40;;;13.80;39.20;;;;;;10388233;28;20230;-72
2021/05/17 23:58:50;;;;;;;0.90;0.60;;;13.80;39.10;;;;;;10384527;28;20299;-72
